createdAt,value
2018-07-28T00:00:26.433Z,19.70
2018-07-28T00:03:10.433Z,19.70
2018-07-28T00:05:57.273Z,19.70
2018-07-28T00:08:40.471Z,19.70
2018-07-28T00:11:27.138Z,19.60
2018-07-28T00:14:11.021Z,19.60
2018-07-28T00:16:58.791Z,19.60
2018-07-28T00:19:41.900Z,19.50
2018-07-28T00:22:29.631Z,19.50
2018-07-28T00:25:14.197Z,19.50
2018-07-28T00:28:01.289Z,19.50
2018-07-28T00:30:45.350Z,19.50
2018-07-28T00:33:32.080Z,19.40
2018-07-28T00:36:16.120Z,19.40
2018-07-28T00:39:04.726Z,19.40
2018-07-28T00:41:48.615Z,19.30
2018-07-28T00:44:35.443Z,19.30
2018-07-28T00:47:19.053Z,19.20
2018-07-28T00:50:06.340Z,19.10
2018-07-28T00:52:49.943Z,19.10
2018-07-28T00:55:37.906Z,19.20
2018-07-28T00:58:21.206Z,19.20
2018-07-28T01:01:09.635Z,19.20
2018-07-28T01:03:53.297Z,19.20
2018-07-28T01:06:39.522Z,19.10
2018-07-28T01:09:22.865Z,19.10
2018-07-28T01:12:10.306Z,19.20
2018-07-28T01:14:53.997Z,19.10
2018-07-28T01:17:41.137Z,19.10
2018-07-28T01:20:25.113Z,19.00
2018-07-28T01:23:12.751Z,19.10
2018-07-28T01:25:56.547Z,19.00
2018-07-28T01:28:43.632Z,19.00
2018-07-28T01:31:26.721Z,18.90
2018-07-28T01:34:13.551Z,18.90
2018-07-28T01:36:57.608Z,18.90
2018-07-28T01:39:49.177Z,18.90
2018-07-28T01:42:32.546Z,18.90
2018-07-28T01:45:19.641Z,18.80
2018-07-28T01:48:03.321Z,18.80
2018-07-28T01:50:49.471Z,18.70
2018-07-28T01:53:32.674Z,18.70
2018-07-28T01:56:20.206Z,18.70
2018-07-28T01:59:03.580Z,18.70
2018-07-28T02:01:52.003Z,18.60
2018-07-28T02:04:35.871Z,18.60
2018-07-28T02:07:27.339Z,18.60
2018-07-28T02:10:11.321Z,18.60
2018-07-28T02:12:58.962Z,18.60
2018-07-28T02:15:42.415Z,18.60
2018-07-28T02:18:30.679Z,18.50
2018-07-28T02:21:14.466Z,18.50
2018-07-28T02:24:00.554Z,18.50
2018-07-28T02:26:43.990Z,18.50
2018-07-28T02:29:31.309Z,18.40
2018-07-28T02:32:14.747Z,18.40
2018-07-28T02:35:02.976Z,18.40
2018-07-28T02:37:46.257Z,18.50
2018-07-28T02:40:34.660Z,18.50
2018-07-28T02:43:18.524Z,18.50
2018-07-28T02:46:05.485Z,18.40
2018-07-28T02:48:49.495Z,18.40
2018-07-28T02:51:37.142Z,18.30
2018-07-28T02:54:20.921Z,18.20
2018-07-28T02:57:08.834Z,18.20
2018-07-28T02:59:52.297Z,18.20
2018-07-28T03:02:39.649Z,18.10
2018-07-28T03:05:23.605Z,18.10
2018-07-28T03:08:11.332Z,18.10
2018-07-28T03:10:54.852Z,18.10
2018-07-28T03:13:42.153Z,18.10
2018-07-28T03:16:25.884Z,18.10
2018-07-28T03:19:12.915Z,18.10
2018-07-28T03:21:56.833Z,18.00
2018-07-28T03:24:43.745Z,18.00
2018-07-28T03:27:27.769Z,18.00
2018-07-28T03:30:14.570Z,18.00
2018-07-28T03:32:57.851Z,18.00
2018-07-28T03:35:44.406Z,18.00
2018-07-28T03:38:28.281Z,17.90
2018-07-28T03:41:15.250Z,18.00
2018-07-28T03:44:06.702Z,17.90
2018-07-28T03:47:01.447Z,17.90
2018-07-28T03:49:53.106Z,18.00
2018-07-28T03:52:47.560Z,18.00
2018-07-28T03:55:38.422Z,18.00
2018-07-28T03:58:33.837Z,18.00
2018-07-28T04:01:24.726Z,18.00
2018-07-28T04:04:20.032Z,18.00
2018-07-28T04:07:11.504Z,18.10
2018-07-28T04:10:06.172Z,18.10
2018-07-28T04:12:57.167Z,18.10
2018-07-28T04:15:51.429Z,18.10
2018-07-28T04:18:42.920Z,18.10
2018-07-28T04:21:36.691Z,18.20
2018-07-28T04:24:28.169Z,18.20
2018-07-28T04:27:23.884Z,18.30
2018-07-28T04:30:14.796Z,18.30
2018-07-28T04:33:10.075Z,18.40
2018-07-28T04:36:01.325Z,18.50
2018-07-28T04:38:55.354Z,18.60
2018-07-28T04:41:46.365Z,18.70
2018-07-28T04:44:40.594Z,18.80
2018-07-28T04:47:31.481Z,18.90
2018-07-28T04:50:26.813Z,19.00
2018-07-28T04:53:18.149Z,19.10
2018-07-28T04:56:13.840Z,19.20
2018-07-28T04:59:05.297Z,19.30
2018-07-28T05:02:01.043Z,19.40
2018-07-28T05:04:52.401Z,19.50
2018-07-28T05:07:46.325Z,19.60
2018-07-28T05:10:37.664Z,19.80
2018-07-28T05:13:32.510Z,20.00
2018-07-28T05:16:23.498Z,20.20
2018-07-28T05:19:21.344Z,20.40
2018-07-28T05:22:12.597Z,20.60
2018-07-28T05:25:07.549Z,20.70
2018-07-28T05:27:59.009Z,20.90
2018-07-28T05:30:53.756Z,21.00
2018-07-28T05:33:44.743Z,21.10
2018-07-28T05:36:39.944Z,21.20
2018-07-28T05:39:31.418Z,21.20
2018-07-28T05:42:26.215Z,21.30
2018-07-28T05:45:17.223Z,21.30
2018-07-28T05:48:11.503Z,21.40
2018-07-28T05:51:02.270Z,21.40
2018-07-28T05:53:57.817Z,21.40
2018-07-28T05:56:48.672Z,21.50
2018-07-28T05:59:44.002Z,21.50
2018-07-28T06:02:35.043Z,21.50
2018-07-28T06:05:29.278Z,21.60
2018-07-28T06:08:20.924Z,21.60
2018-07-28T06:11:14.692Z,21.60
2018-07-28T06:14:06.054Z,21.90
2018-07-28T06:17:00.717Z,21.90
2018-07-28T06:19:52.106Z,21.90
2018-07-28T06:22:46.957Z,22.00
2018-07-28T06:25:39.291Z,22.10
2018-07-28T06:28:35.013Z,22.20
2018-07-28T06:31:26.583Z,22.20
2018-07-28T06:34:22.013Z,22.30
2018-07-28T06:37:12.979Z,22.50
2018-07-28T06:40:07.399Z,22.50
2018-07-28T06:42:58.932Z,22.50
2018-07-28T06:45:53.465Z,22.60
2018-07-28T06:48:44.246Z,22.70
2018-07-28T06:51:38.873Z,22.80
2018-07-28T06:54:30.031Z,23.00
2018-07-28T06:57:25.060Z,23.00
2018-07-28T07:00:16.346Z,23.10
2018-07-28T07:03:12.159Z,23.20
2018-07-28T07:06:03.206Z,23.50
2018-07-28T07:08:57.332Z,23.60
2018-07-28T07:11:48.918Z,23.70
2018-07-28T07:14:43.644Z,23.80
2018-07-28T07:17:34.850Z,24.10
2018-07-28T07:20:28.810Z,24.30
2018-07-28T07:23:20.234Z,24.60
2018-07-28T07:26:15.105Z,25.00
2018-07-28T07:29:06.831Z,25.30
2018-07-28T07:32:02.211Z,25.50
2018-07-28T07:34:53.045Z,25.70
2018-07-28T07:37:48.425Z,26.00
2018-07-28T07:40:39.842Z,26.20
2018-07-28T07:43:38.478Z,26.20
2018-07-28T07:46:29.712Z,26.70
2018-07-28T07:49:23.452Z,26.80
2018-07-28T07:52:14.932Z,27.10
2018-07-28T07:55:12.751Z,27.50
2018-07-28T07:58:04.266Z,27.60
2018-07-28T08:00:59.541Z,27.90
2018-07-28T08:03:51.206Z,27.80
2018-07-28T08:06:45.642Z,28.10
2018-07-28T08:09:36.934Z,28.10
2018-07-28T08:12:31.870Z,28.80
2018-07-28T08:15:23.560Z,29.00
2018-07-28T08:18:18.947Z,28.90
2018-07-28T08:21:10.582Z,29.60
2018-07-28T08:24:06.034Z,29.40
2018-07-28T08:26:57.384Z,29.60
2018-07-28T08:29:53.175Z,29.40
2018-07-28T08:32:44.566Z,29.70
2018-07-28T08:35:39.345Z,29.80
2018-07-28T08:38:30.370Z,29.50
2018-07-28T08:41:24.652Z,29.50
2018-07-28T08:44:16.298Z,29.70
2018-07-28T08:47:10.813Z,29.70
2018-07-28T08:50:01.615Z,30.20
2018-07-28T08:52:57.005Z,30.30
2018-07-28T08:55:48.519Z,30.70
2018-07-28T08:58:44.046Z,30.60
2018-07-28T09:01:35.555Z,31.40
2018-07-28T09:04:32.186Z,31.00
2018-07-28T09:07:23.524Z,31.00
2018-07-28T09:10:19.195Z,30.60
2018-07-28T09:13:10.635Z,30.70
2018-07-28T09:16:05.335Z,30.90
2018-07-28T09:18:57.467Z,31.10
2018-07-28T09:21:53.431Z,30.90
2018-07-28T09:24:44.436Z,31.80
2018-07-28T09:27:39.610Z,31.60
2018-07-28T09:30:31.479Z,32.30
2018-07-28T09:33:25.810Z,32.30
2018-07-28T09:36:17.243Z,32.90
2018-07-28T09:41:55.523Z,32.10
2018-07-28T09:44:50.929Z,32.10
2018-07-28T09:47:42.324Z,32.40
2018-07-28T09:50:38.046Z,31.80
2018-07-28T09:53:28.897Z,31.40
2018-07-28T09:56:25.159Z,32.20
2018-07-28T09:59:16.282Z,32.30
2018-07-28T10:02:12.272Z,32.40
2018-07-28T10:05:03.490Z,32.40
2018-07-28T10:08:00.204Z,32.10
2018-07-28T10:10:51.508Z,32.20
2018-07-28T10:13:46.368Z,31.80
2018-07-28T10:16:38.159Z,32.30
2018-07-28T10:19:33.523Z,32.40
2018-07-28T10:22:24.538Z,32.50
2018-07-28T10:25:18.803Z,32.30
2018-07-28T10:28:10.580Z,32.50
2018-07-28T10:31:05.044Z,33.10
2018-07-28T10:33:56.713Z,32.90
2018-07-28T10:36:52.087Z,33.30
2018-07-28T10:39:42.807Z,33.40
2018-07-28T10:42:38.287Z,33.20
2018-07-28T10:45:30.701Z,33.80
2018-07-28T10:48:26.242Z,33.30
2018-07-28T10:51:17.789Z,34.00
2018-07-28T10:54:12.541Z,34.60
2018-07-28T10:57:03.983Z,34.30
2018-07-28T10:59:58.713Z,34.10
2018-07-28T11:02:49.989Z,34.70
2018-07-28T11:05:48.609Z,34.80
2018-07-28T11:08:40.157Z,35.30
2018-07-28T11:11:34.663Z,35.00
2018-07-28T11:14:25.248Z,34.80
2018-07-28T11:17:19.951Z,35.50
2018-07-28T11:20:12.616Z,35.40
2018-07-28T11:23:08.010Z,34.90
2018-07-28T11:25:59.755Z,34.40
2018-07-28T11:28:55.985Z,35.00
2018-07-28T11:31:58.752Z,35.60
2018-07-28T11:35:04.839Z,35.20
2018-07-28T11:38:09.522Z,34.70
2018-07-28T11:41:17.352Z,35.10
2018-07-28T11:44:20.563Z,34.70
2018-07-28T11:47:17.217Z,34.60
2018-07-28T11:50:08.754Z,34.80
2018-07-28T11:53:04.246Z,34.70
2018-07-28T11:55:55.071Z,33.90
2018-07-28T11:58:50.185Z,34.40
2018-07-28T12:01:41.160Z,35.20
2018-07-28T12:04:35.735Z,35.40
2018-07-28T12:07:26.610Z,34.90
2018-07-28T12:10:22.562Z,34.80
2018-07-28T12:13:13.801Z,33.80
2018-07-28T12:16:09.039Z,33.70
2018-07-28T12:19:00.207Z,33.80
2018-07-28T12:21:55.206Z,33.60
2018-07-28T12:24:46.524Z,33.80
2018-07-28T12:27:42.257Z,34.30
2018-07-28T12:30:33.696Z,34.40
2018-07-28T12:33:27.539Z,33.70
2018-07-28T12:36:19.113Z,34.10
2018-07-28T12:39:14.731Z,34.40
2018-07-28T12:42:06.597Z,33.80
2018-07-28T12:45:01.723Z,34.70
2018-07-28T12:47:52.822Z,35.10
2018-07-28T12:50:47.924Z,35.00
2018-07-28T12:53:39.252Z,34.60
2018-07-28T12:56:35.052Z,35.70
2018-07-28T12:59:26.247Z,36.20
2018-07-28T13:02:22.156Z,36.40
2018-07-28T13:05:14.518Z,35.90
2018-07-28T13:08:10.195Z,36.00
2018-07-28T13:11:01.649Z,36.10
2018-07-28T13:13:57.336Z,36.10
2018-07-28T13:16:48.951Z,36.80
2018-07-28T13:19:44.344Z,36.90
2018-07-28T13:22:35.046Z,36.40
2018-07-28T13:25:29.715Z,36.40
2018-07-28T13:28:21.218Z,36.10
2018-07-28T13:31:14.893Z,36.10
2018-07-28T13:34:06.485Z,36.30
2018-07-28T13:37:01.164Z,35.30
2018-07-28T13:39:52.052Z,36.10
2018-07-28T13:42:48.180Z,36.40
2018-07-28T13:45:39.188Z,35.80
2018-07-28T13:48:36.195Z,35.30
2018-07-28T13:51:27.630Z,36.00
2018-07-28T13:54:24.315Z,36.60
2018-07-28T13:57:16.276Z,36.70
2018-07-28T14:00:12.319Z,36.50
2018-07-28T14:03:03.822Z,37.10
2018-07-28T14:05:59.442Z,37.10
2018-07-28T14:08:51.615Z,36.70
2018-07-28T14:11:47.325Z,36.70
2018-07-28T14:14:38.954Z,35.20
2018-07-28T14:17:33.546Z,35.50
2018-07-28T14:20:24.804Z,35.70
2018-07-28T14:23:18.809Z,35.70
2018-07-28T14:26:10.075Z,35.70
2018-07-28T14:29:04.057Z,35.20
2018-07-28T14:31:55.718Z,35.90
2018-07-28T14:34:51.162Z,36.50
2018-07-28T14:37:42.643Z,36.90
2018-07-28T14:40:38.275Z,36.80
2018-07-28T14:43:29.652Z,36.50
2018-07-28T14:46:23.568Z,36.10
2018-07-28T14:49:15.290Z,35.40
2018-07-28T14:52:09.747Z,35.80
2018-07-28T14:55:00.510Z,35.60
2018-07-28T14:57:55.042Z,35.50
2018-07-28T15:00:46.282Z,34.90
2018-07-28T15:03:42.144Z,35.20
2018-07-28T15:06:33.489Z,35.80
2018-07-28T15:09:28.335Z,36.00
2018-07-28T15:12:19.899Z,36.30
2018-07-28T15:15:15.450Z,36.00
2018-07-28T15:18:06.270Z,35.40
2018-07-28T15:21:00.717Z,35.00
2018-07-28T15:23:51.899Z,34.90
2018-07-28T15:26:46.013Z,35.00
2018-07-28T15:29:37.254Z,34.70
2018-07-28T15:32:32.147Z,34.90
2018-07-28T15:35:23.474Z,34.60
2018-07-28T15:38:19.361Z,34.70
2018-07-28T15:41:10.984Z,34.20
2018-07-28T15:44:06.413Z,34.00
2018-07-28T15:46:57.856Z,33.80
2018-07-28T15:49:51.674Z,33.60
2018-07-28T15:52:43.246Z,33.70
2018-07-28T15:55:37.888Z,33.20
2018-07-28T15:58:29.237Z,32.90
2018-07-28T16:01:27.727Z,32.90
2018-07-28T16:04:19.280Z,32.90
2018-07-28T16:07:14.021Z,32.80
2018-07-28T16:10:07.256Z,32.70
2018-07-28T16:13:03.794Z,32.60
2018-07-28T16:15:56.668Z,32.20
2018-07-28T16:18:51.788Z,31.80
2018-07-28T16:21:42.757Z,31.90
2018-07-28T16:24:38.013Z,31.70
2018-07-28T16:27:30.123Z,31.60
2018-07-28T16:30:25.905Z,31.50
2018-07-28T16:33:17.289Z,31.40
2018-07-28T16:36:12.139Z,31.40
2018-07-28T16:39:04.064Z,31.20
2018-07-28T16:42:00.131Z,31.20
2018-07-28T16:44:51.977Z,31.20
2018-07-28T16:47:47.234Z,30.90
2018-07-28T16:50:38.927Z,30.90
2018-07-28T16:53:35.167Z,30.80
2018-07-28T16:56:26.672Z,30.80
2018-07-28T16:59:22.322Z,30.60
2018-07-28T17:02:13.890Z,30.60
2018-07-28T17:05:09.365Z,30.60
2018-07-28T17:07:57.071Z,30.60
2018-07-28T17:10:43.972Z,30.40
2018-07-28T17:13:27.884Z,30.40
2018-07-28T17:16:14.588Z,30.30
2018-07-28T17:18:58.901Z,30.20
2018-07-28T17:21:47.261Z,30.10
2018-07-28T17:24:30.867Z,30.10
2018-07-28T17:27:18.923Z,30.00
2018-07-28T17:30:02.800Z,29.80
2018-07-28T17:32:49.677Z,29.70
2018-07-28T17:35:32.882Z,29.50
2018-07-28T17:38:20.507Z,29.40
2018-07-28T17:41:04.565Z,29.40
2018-07-28T17:43:52.178Z,29.20
2018-07-28T17:46:36.189Z,29.20
2018-07-28T17:49:23.958Z,29.00
2018-07-28T17:52:07.813Z,28.90
2018-07-28T17:54:54.682Z,28.90
2018-07-28T17:57:37.992Z,28.50
2018-07-28T18:00:25.437Z,28.10
2018-07-28T18:03:09.526Z,27.40
2018-07-28T18:05:57.230Z,27.20
2018-07-28T18:08:41.159Z,27.00
2018-07-28T18:11:27.970Z,26.80
2018-07-28T18:14:11.583Z,26.70
2018-07-28T18:17:02.571Z,26.50
2018-07-28T18:19:54.010Z,26.30
2018-07-28T18:22:37.764Z,26.00
2018-07-28T18:25:25.423Z,25.90
2018-07-28T18:28:09.294Z,25.70
2018-07-28T18:30:56.079Z,25.50
2018-07-28T18:33:39.704Z,25.30
2018-07-28T18:36:26.011Z,25.00
2018-07-28T18:41:49.662Z,24.50
2018-07-28T18:44:36.645Z,24.40
2018-07-28T18:47:23.127Z,24.20
2018-07-28T18:50:07.306Z,24.10
2018-07-28T18:52:54.747Z,24.00
2018-07-28T18:55:38.633Z,23.90
2018-07-28T18:58:26.440Z,23.80
2018-07-28T19:01:10.129Z,23.90
2018-07-28T19:06:33.443Z,23.80
2018-07-28T19:09:25.391Z,23.60
2018-07-28T19:12:08.833Z,23.50
2018-07-28T19:14:56.118Z,23.60
2018-07-28T19:17:45.363Z,23.50
2018-07-28T19:20:32.272Z,23.40
2018-07-28T19:23:20.905Z,23.40
2018-07-28T19:26:08.437Z,23.40
2018-07-28T19:28:57.356Z,23.00
2018-07-28T19:31:44.718Z,23.10
2018-07-28T19:34:28.293Z,22.90
2018-07-28T19:37:22.861Z,22.90
2018-07-28T19:40:06.865Z,22.70
2018-07-28T19:42:56.340Z,22.70
2018-07-28T19:45:40.203Z,22.70
2018-07-28T19:48:27.904Z,22.70
2018-07-28T19:51:11.780Z,22.70
2018-07-28T19:53:58.746Z,22.70
2018-07-28T19:56:42.326Z,22.70
2018-07-28T19:59:29.469Z,22.70
2018-07-28T20:02:12.924Z,22.60
2018-07-28T20:05:00.328Z,22.60
2018-07-28T20:07:46.632Z,22.50
2018-07-28T20:10:33.860Z,22.50
2018-07-28T20:13:17.039Z,22.40
2018-07-28T20:16:05.616Z,22.60
2018-07-28T20:18:49.815Z,22.50
2018-07-28T20:21:36.380Z,22.50
2018-07-28T20:24:20.507Z,22.50
2018-07-28T20:27:07.990Z,22.50
2018-07-28T20:29:51.827Z,22.50
2018-07-28T20:32:38.835Z,22.50
2018-07-28T20:35:22.986Z,22.60
2018-07-28T20:38:10.804Z,22.50
2018-07-28T20:40:54.359Z,22.50
2018-07-28T20:43:41.950Z,22.50
2018-07-28T20:46:26.660Z,22.50
2018-07-28T20:49:14.509Z,22.40
2018-07-28T20:51:57.709Z,22.40
2018-07-28T20:54:45.314Z,22.40
2018-07-28T20:57:28.942Z,22.30
2018-07-28T21:00:16.385Z,22.30
2018-07-28T21:03:00.739Z,22.30
2018-07-28T21:05:48.136Z,22.30
2018-07-28T21:08:31.858Z,22.20
2018-07-28T21:11:18.856Z,22.20
2018-07-28T21:14:02.921Z,22.10
2018-07-28T21:16:51.419Z,22.10
2018-07-28T21:19:34.843Z,22.00
2018-07-28T21:22:21.336Z,22.00
2018-07-28T21:25:05.256Z,22.00
2018-07-28T21:27:52.105Z,21.90
2018-07-28T21:30:35.739Z,21.80
2018-07-28T21:33:21.919Z,21.80
2018-07-28T21:36:05.106Z,21.80
2018-07-28T21:38:51.837Z,21.80
2018-07-28T21:41:35.429Z,21.70
2018-07-28T21:44:23.521Z,21.60
2018-07-28T21:47:06.858Z,21.60
2018-07-28T21:49:54.363Z,21.50
2018-07-28T21:52:38.197Z,21.50
2018-07-28T21:55:25.089Z,21.60
2018-07-28T21:58:08.678Z,21.50
2018-07-28T22:01:01.339Z,21.60
2018-07-28T22:03:45.056Z,21.50
2018-07-28T22:06:32.196Z,21.50
2018-07-28T22:09:16.277Z,21.50
2018-07-28T22:12:03.878Z,21.40
2018-07-28T22:14:47.205Z,21.40
2018-07-28T22:17:34.605Z,21.40
2018-07-28T22:20:17.764Z,21.40
2018-07-28T22:23:05.443Z,21.50
2018-07-28T22:25:49.176Z,21.40
2018-07-28T22:28:36.193Z,21.40
2018-07-28T22:31:19.590Z,21.40
2018-07-28T22:34:06.137Z,21.30
2018-07-28T22:36:49.902Z,21.30
2018-07-28T22:39:36.846Z,21.30
2018-07-28T22:42:25.483Z,21.30
2018-07-28T22:45:12.238Z,21.20
2018-07-28T22:47:55.784Z,21.20
2018-07-28T22:50:42.038Z,21.20
2018-07-28T22:53:25.441Z,21.30
2018-07-28T22:56:12.607Z,21.30
2018-07-28T22:58:56.670Z,21.30
2018-07-28T23:01:44.488Z,21.30
2018-07-28T23:04:27.744Z,21.20
2018-07-28T23:07:14.477Z,21.20
2018-07-28T23:09:58.140Z,21.20
2018-07-28T23:12:44.275Z,21.20
2018-07-28T23:15:29.272Z,21.20
2018-07-28T23:18:16.883Z,21.20
2018-07-28T23:21:00.629Z,21.20
2018-07-28T23:23:51.301Z,21.10
2018-07-28T23:26:35.038Z,21.10
2018-07-28T23:29:22.160Z,21.10
2018-07-28T23:32:05.536Z,21.10
2018-07-28T23:34:51.989Z,21.10
2018-07-28T23:37:36.615Z,21.10
2018-07-28T23:40:24.523Z,21.00
2018-07-28T23:43:08.015Z,21.00
2018-07-28T23:45:54.359Z,21.00
2018-07-28T23:48:37.541Z,21.00
2018-07-28T23:51:24.404Z,21.00
2018-07-28T23:54:07.911Z,21.00
2018-07-28T23:56:54.307Z,21.00
2018-07-28T23:59:38.225Z,21.00
